North Platte, Nebraska
Current Conditions -  °F | °C
As of 11:53 AM on Wednesday 28 Jan 2015 (Local Time) from KLBF Reporting Station
Clear Clear  
Wind Chill: 63°   Ceiling: Unl
Heat Index: 63°   Visibility: 10mi
Dew Point: 32°   Wind: 30mph
Humidity: 31%   Direction: 300°WNW
Pressure: 29.85"   Gusts: 37mph
Location:  41.14°N, 100.76°W
Report Text: KLBF 281753Z AUTO 30026G32KT 10SM CLR 17/00 A2985 RMK AO2 PK WND 30032/1746 SLP110 T01720000 10172 21017 58003 $
Loading
Personal Weather Stations






























Interactive Weather Map New forecast layout! Learn more

10-Day Weather Forecast

Advertisements
Track Severe Weather on mobile